createdAt,value
2018-12-30T00:01:24.808Z,97787.41
2018-12-30T00:04:31.783Z,97779.38
2018-12-30T00:07:39.325Z,97802.59
2018-12-30T00:10:46.323Z,97793.30
2018-12-30T00:13:53.284Z,97784.45
2018-12-30T00:16:59.947Z,97796.70
2018-12-30T00:20:07.383Z,97787.00
2018-12-30T00:23:15.831Z,97785.33
2018-12-30T00:26:22.877Z,97783.63
2018-12-30T00:29:29.872Z,97779.42
2018-12-30T00:32:36.896Z,97779.42
2018-12-30T00:35:45.047Z,97791.66
2018-12-30T00:38:51.793Z,97790.38
2018-12-30T00:41:58.559Z,97789.53
2018-12-30T00:45:05.560Z,97789.13
2018-12-30T00:48:16.089Z,97788.26
2018-12-30T00:51:23.274Z,97793.74
2018-12-30T00:54:30.293Z,97790.80
2018-12-30T00:57:37.413Z,97782.80
2018-12-30T01:00:44.215Z,97786.16
2018-12-30T01:03:51.050Z,97787.44
2018-12-30T01:06:57.836Z,97795.03
2018-12-30T01:10:07.821Z,97780.28
2018-12-30T01:13:14.825Z,97791.66
2018-12-30T01:16:21.823Z,97793.33
2018-12-30T01:19:28.556Z,97795.86
2018-12-30T01:22:36.231Z,97789.95
2018-12-30T01:25:43.167Z,97800.07
2018-12-30T01:28:50.495Z,97793.74
2018-12-30T01:31:57.515Z,97790.80
2018-12-30T01:35:05.740Z,97802.59
2018-12-30T01:38:15.849Z,97799.66
2018-12-30T01:41:22.972Z,97805.97
2018-12-30T01:44:30.156Z,97796.29
2018-12-30T01:47:37.162Z,97798.81
2018-12-30T01:50:44.067Z,97792.48
2018-12-30T01:53:52.165Z,97790.36
2018-12-30T01:56:59.168Z,97789.94
2018-12-30T02:00:06.944Z,97791.20
2018-12-30T02:03:13.790Z,97795.40
2018-12-30T02:06:20.996Z,97791.19
2018-12-30T02:09:28.016Z,97795.80
2018-12-30T02:12:35.479Z,97793.72
2018-12-30T02:15:42.468Z,97791.57
2018-12-30T02:18:49.752Z,97793.27
2018-12-30T02:21:56.494Z,97786.53
2018-12-30T02:25:03.828Z,97789.08
2018-12-30T02:28:13.678Z,97786.15
2018-12-30T02:31:20.401Z,97786.98
2018-12-30T02:34:27.714Z,97779.39
2018-12-30T02:37:34.680Z,97789.09
2018-12-30T02:40:41.735Z,97776.87
2018-12-30T02:43:48.535Z,97782.78
2018-12-30T02:46:55.645Z,97777.29
2018-12-30T02:50:02.668Z,97779.42
2018-12-30T02:53:10.210Z,97771.42
2018-12-30T02:56:17.272Z,97771.84
2018-12-30T02:59:25.201Z,97770.98
2018-12-30T03:02:32.142Z,97765.52
2018-12-30T03:05:39.536Z,97758.33
2018-12-30T03:08:46.371Z,97766.78
2018-12-30T03:11:53.365Z,97759.59
2018-12-30T03:15:00.823Z,97753.71
2018-12-30T03:18:07.691Z,97750.73
2018-12-30T03:21:14.524Z,97745.27
2018-12-30T03:24:21.261Z,97757.92
2018-12-30T03:27:28.378Z,97749.06
2018-12-30T03:30:35.319Z,97742.32
2018-12-30T03:33:42.281Z,97747.39
2018-12-30T03:36:49.449Z,97749.06
2018-12-30T03:39:56.494Z,97743.15
2018-12-30T03:43:03.571Z,97735.14
2018-12-30T03:46:10.576Z,97746.53
2018-12-30T03:49:17.293Z,97746.13
2018-12-30T03:52:24.537Z,97749.48
2018-12-30T03:55:31.401Z,97752.45
2018-12-30T03:58:38.170Z,97752.86
2018-12-30T04:01:44.905Z,97746.95
2018-12-30T04:04:51.689Z,97756.66
2018-12-30T04:07:58.670Z,97739.35
2018-12-30T04:11:05.634Z,97751.59
2018-12-30T04:14:12.587Z,97761.73
2018-12-30T04:17:20.022Z,97766.34
2018-12-30T04:20:28.453Z,97771.85
2018-12-30T04:23:35.984Z,97770.59
2018-12-30T04:26:42.948Z,97783.25
2018-12-30T04:29:50.128Z,97773.12
2018-12-30T04:32:57.089Z,97765.08
2018-12-30T04:36:03.817Z,97771.41
2018-12-30T04:39:10.533Z,97771.84
2018-12-30T04:42:17.893Z,97780.27
2018-12-30T04:45:24.767Z,97781.11
2018-12-30T04:48:31.947Z,97782.61
2018-12-30T04:51:38.926Z,97793.59
2018-12-30T04:54:45.681Z,97790.17
2018-12-30T04:57:52.378Z,97791.81
2018-12-30T05:00:59.446Z,97801.08
2018-12-30T05:04:06.346Z,97803.12
2018-12-30T05:07:13.277Z,97815.73
2018-12-30T05:10:20.276Z,97812.25
2018-12-30T05:13:27.100Z,97827.97
2018-12-30T05:16:37.371Z,97827.90
2018-12-30T05:19:44.570Z,97834.73
2018-12-30T05:22:51.449Z,97844.00
2018-12-30T05:25:58.420Z,97849.05
2018-12-30T05:29:05.244Z,97859.69
2018-12-30T05:32:12.430Z,97859.17
2018-12-30T05:35:20.335Z,97869.34
2018-12-30T05:38:27.347Z,97878.22
2018-12-30T05:41:34.259Z,97886.28
2018-12-30T05:44:41.385Z,97886.75
2018-12-30T05:47:51.777Z,97903.24
2018-12-30T05:50:58.848Z,97913.00
2018-12-30T05:54:05.791Z,97923.58
2018-12-30T05:57:13.010Z,97924.88
2018-12-30T06:00:19.747Z,97939.26
2018-12-30T06:03:26.813Z,97955.76
2018-12-30T06:06:33.789Z,97962.98
2018-12-30T06:09:41.246Z,97972.75
2018-12-30T06:12:50.922Z,97985.44
2018-12-30T06:15:57.968Z,97983.78
2018-12-30T06:19:04.901Z,98001.11
2018-12-30T06:22:12.343Z,97996.48
2018-12-30T06:25:19.352Z,98013.39
2018-12-30T06:28:26.372Z,98021.00
2018-12-30T06:31:33.323Z,98022.27
2018-12-30T06:34:43.287Z,98023.12
2018-12-30T06:37:50.334Z,98029.05
2018-12-30T06:40:57.096Z,98049.75
2018-12-30T06:44:03.823Z,98043.41
2018-12-30T06:47:10.880Z,98057.77
2018-12-30T06:50:17.841Z,98065.81
2018-12-30T06:53:24.875Z,98069.17
2018-12-30T06:56:31.588Z,98073.41
2018-12-30T06:59:39.193Z,98085.23
2018-12-30T07:02:46.088Z,98086.52
2018-12-30T07:05:53.035Z,98099.62
2018-12-30T07:09:00.173Z,98109.36
2018-12-30T07:12:07.173Z,98113.58
2018-12-30T07:15:14.143Z,98127.53
2018-12-30T07:18:21.099Z,98124.59
2018-12-30T07:21:28.037Z,98137.70
2018-12-30T07:24:35.549Z,98142.36
2018-12-30T07:27:45.064Z,98144.89
2018-12-30T07:30:53.615Z,98154.16
2018-12-30T07:34:00.629Z,98157.14
2018-12-30T07:37:07.919Z,98161.38
2018-12-30T07:40:15.198Z,98168.99
2018-12-30T07:43:24.716Z,98173.64
2018-12-30T07:46:31.734Z,98183.78
2018-12-30T07:49:38.765Z,98189.68
2018-12-30T07:52:45.900Z,98204.09
2018-12-30T07:55:52.902Z,98212.09
2018-12-30T07:58:59.595Z,98211.27
2018-12-30T08:02:06.927Z,98213.78
2018-12-30T08:05:13.649Z,98220.58
2018-12-30T08:08:20.633Z,98221.83
2018-12-30T08:11:27.660Z,98222.27
2018-12-30T08:14:37.307Z,98241.25
2018-12-30T08:17:44.265Z,98243.39
2018-12-30T08:20:53.569Z,98253.94
2018-12-30T08:24:00.400Z,98262.41
2018-12-30T08:27:07.487Z,98266.23
2018-12-30T08:30:14.408Z,98262.84
2018-12-30T08:33:21.781Z,98284.42
2018-12-30T08:36:29.131Z,98279.77
2018-12-30T08:39:36.370Z,98287.77
2018-12-30T08:42:43.144Z,98286.95
2018-12-30T08:45:50.028Z,98298.77
2018-12-30T08:48:56.752Z,98302.16
2018-12-30T08:52:03.496Z,98309.34
2018-12-30T08:55:10.439Z,98315.68
2018-12-30T08:58:17.268Z,98312.33
2018-12-30T09:01:28.255Z,98320.37
2018-12-30T09:04:32.670Z,98322.50
2018-12-30T09:07:39.653Z,98334.33
2018-12-30T09:10:47.037Z,98343.62
2018-12-30T09:13:54.074Z,98348.73
2018-12-30T09:17:01.142Z,98348.74
2018-12-30T09:20:08.106Z,98350.85
2018-12-30T09:23:14.940Z,98351.24
2018-12-30T09:26:22.265Z,98357.17
2018-12-30T09:29:30.663Z,98358.89
2018-12-30T09:32:37.583Z,98362.71
2018-12-30T09:35:44.959Z,98367.80
2018-12-30T09:38:51.652Z,98368.27
2018-12-30T09:41:58.380Z,98384.29
2018-12-30T09:45:05.367Z,98380.48
2018-12-30T09:48:12.156Z,98385.16
2018-12-30T09:51:19.987Z,98380.52
2018-12-30T09:54:27.648Z,98384.34
2018-12-30T09:57:34.628Z,98380.08
2018-12-30T10:00:41.354Z,98378.83
2018-12-30T10:03:49.176Z,98379.27
2018-12-30T10:06:56.164Z,98378.86
2018-12-30T10:10:03.074Z,98387.77
2018-12-30T10:13:10.661Z,98386.48
2018-12-30T10:16:17.363Z,98387.31
2018-12-30T10:19:24.389Z,98381.44
2018-12-30T10:22:31.110Z,98383.97
2018-12-30T10:25:37.815Z,98386.52
2018-12-30T10:28:44.799Z,98392.03
2018-12-30T10:31:53.068Z,98389.91
2018-12-30T10:35:00.290Z,98398.78
2018-12-30T10:38:07.276Z,98391.61
2018-12-30T10:41:14.196Z,98393.72
2018-12-30T10:44:21.152Z,98392.91
2018-12-30T10:47:28.129Z,98391.63
2018-12-30T10:50:35.373Z,98391.20
2018-12-30T10:53:42.319Z,98398.39
2018-12-30T10:56:49.291Z,98394.18
2018-12-30T10:59:56.183Z,98398.00
2018-12-30T11:03:03.201Z,98397.14
2018-12-30T11:06:10.404Z,98399.25
2018-12-30T11:09:17.406Z,98399.27
2018-12-30T11:12:24.902Z,98394.59
2018-12-30T11:15:31.897Z,98400.95
2018-12-30T11:18:38.628Z,98396.72
2018-12-30T11:21:45.639Z,98408.13
2018-12-30T11:24:52.376Z,98400.95
2018-12-30T11:28:01.608Z,98398.41
2018-12-30T11:31:08.518Z,98399.27
2018-12-30T11:34:16.108Z,98395.45
2018-12-30T11:37:37.220Z,98395.45
2018-12-30T11:40:44.509Z,98400.08
2018-12-30T11:43:51.482Z,98392.45
2018-12-30T11:46:58.423Z,98387.84
2018-12-30T11:50:06.377Z,98395.88
2018-12-30T11:53:13.400Z,98387.41
2018-12-30T11:56:20.379Z,98396.31
2018-12-30T11:59:27.380Z,98388.29
2018-12-30T12:02:36.084Z,98390.83
2018-12-30T12:05:43.027Z,98383.21
2018-12-30T12:09:04.180Z,98393.77
2018-12-30T12:12:11.700Z,98387.44
2018-12-30T12:15:18.935Z,98392.94
2018-12-30T12:18:25.752Z,98393.41
2018-12-30T12:21:32.721Z,98391.30
2018-12-30T12:24:41.467Z,98390.03
2018-12-30T12:27:48.239Z,98392.16
2018-12-30T12:30:55.072Z,98391.72
2018-12-30T12:34:02.081Z,98398.07
2018-12-30T12:37:09.080Z,98407.37
2018-12-30T12:40:16.053Z,98413.33
2018-12-30T12:43:22.998Z,98415.02
2018-12-30T12:46:29.773Z,98408.26
2018-12-30T12:49:37.031Z,98404.87
2018-12-30T12:52:44.033Z,98404.86
2018-12-30T12:55:52.793Z,98404.03
2018-12-30T12:58:59.474Z,98402.32
2018-12-30T13:02:11.835Z,98410.38
2018-12-30T13:05:18.893Z,98413.74
2018-12-30T13:08:33.453Z,98418.41
2018-12-30T13:11:41.236Z,98421.80
2018-12-30T13:14:49.627Z,98409.11
2018-12-30T13:18:16.391Z,98428.17
2018-12-30T13:21:27.535Z,98418.42
2018-12-30T13:24:40.117Z,98430.71
2018-12-30T13:28:10.320Z,98423.52
2018-12-30T13:31:18.841Z,98426.48
2018-12-30T13:34:26.096Z,98429.45
2018-12-30T13:37:33.267Z,98425.20
2018-12-30T13:40:40.717Z,98424.38
2018-12-30T13:43:48.105Z,98418.86
2018-12-30T13:46:55.043Z,98421.82
2018-12-30T13:50:02.294Z,98430.31
2018-12-30T13:53:09.036Z,98419.31
2018-12-30T13:56:16.042Z,98425.23
2018-12-30T13:59:22.792Z,98430.74
2018-12-30T14:02:29.827Z,98437.50
2018-12-30T14:05:36.771Z,98437.09
2018-12-30T14:08:44.280Z,98438.36
2018-12-30T14:11:51.109Z,98441.30
2018-12-30T14:14:57.832Z,98441.71
2018-12-30T14:18:04.823Z,98441.30
2018-12-30T14:21:11.532Z,98449.78
2018-12-30T14:24:18.536Z,98461.61
2018-12-30T14:27:25.446Z,98470.09
2018-12-30T14:30:32.397Z,98458.63
2018-12-30T14:33:39.306Z,98463.70
2018-12-30T14:36:46.263Z,98471.34
2018-12-30T14:39:54.644Z,98473.44
2018-12-30T14:43:01.579Z,98475.53
2018-12-30T14:46:08.520Z,98481.05
2018-12-30T14:49:15.500Z,98484.41
2018-12-30T14:52:22.394Z,98486.13
2018-12-30T14:55:29.599Z,98493.74
2018-12-30T14:58:36.572Z,98500.09
2018-12-30T15:01:43.864Z,98503.89
2018-12-30T15:04:51.106Z,98500.89
2018-12-30T15:07:57.917Z,98502.19
2018-12-30T15:11:04.972Z,98492.87
2018-12-30T15:14:11.946Z,98493.75
2018-12-30T15:17:18.840Z,98494.13
2018-12-30T15:20:25.772Z,98488.64
2018-12-30T15:23:33.027Z,98500.09
2018-12-30T15:26:40.081Z,98501.37
2018-12-30T15:29:50.323Z,98492.47
2018-12-30T15:32:57.560Z,98492.00
2018-12-30T15:36:04.400Z,98497.53
2018-12-30T15:39:11.157Z,98495.41
2018-12-30T15:42:18.980Z,98484.83
2018-12-30T15:45:26.225Z,98489.06
2018-12-30T15:48:33.145Z,98477.19
2018-12-30T15:51:40.147Z,98482.69
2018-12-30T15:54:46.888Z,98486.92
2018-12-30T15:57:54.306Z,98485.66
2018-12-30T16:01:01.240Z,98485.64
2018-12-30T16:04:08.241Z,98489.44
2018-12-30T16:07:15.181Z,98502.16
2018-12-30T16:10:22.345Z,98491.57
2018-12-30T16:13:29.316Z,98501.31
2018-12-30T16:16:36.035Z,98490.76
2018-12-30T16:19:42.743Z,98487.36
2018-12-30T16:22:49.894Z,98503.86
2018-12-30T16:25:56.807Z,98502.62
2018-12-30T16:29:04.102Z,98515.73
2018-12-30T16:32:11.152Z,98517.41
2018-12-30T16:35:18.772Z,98522.08
2018-12-30T16:38:26.690Z,98527.17
2018-12-30T16:41:33.823Z,98520.42
2018-12-30T16:44:41.024Z,98526.73
2018-12-30T16:47:47.727Z,98538.59
2018-12-30T16:50:54.576Z,98554.70
2018-12-30T16:54:01.933Z,98551.73
2018-12-30T16:57:08.636Z,98550.52
2018-12-30T17:00:15.431Z,98555.98
2018-12-30T17:03:25.140Z,98560.23
2018-12-30T17:06:34.080Z,98565.28
2018-12-30T17:09:40.783Z,98558.08
2018-12-30T17:12:47.894Z,98556.41
2018-12-30T17:15:57.845Z,98558.93
2018-12-30T17:19:05.930Z,98561.50
2018-12-30T17:22:12.987Z,98553.45
2018-12-30T17:25:22.286Z,98559.80
2018-12-30T17:28:29.227Z,98556.82
2018-12-30T17:31:36.204Z,98550.03
2018-12-30T17:34:42.916Z,98546.22
2018-12-30T17:37:50.226Z,98554.28
2018-12-30T17:41:01.543Z,98566.58
2018-12-30T17:44:05.414Z,98574.17
2018-12-30T17:47:13.744Z,98572.92
2018-12-30T17:50:20.498Z,98579.23
2018-12-30T17:53:27.283Z,98577.13
2018-12-30T17:56:34.472Z,98580.95
2018-12-30T17:59:41.393Z,98579.70
2018-12-30T18:02:49.185Z,98580.54
2018-12-30T18:05:56.072Z,98583.92
2018-12-30T18:09:04.487Z,98593.64
2018-12-30T18:12:11.218Z,98594.88
2018-12-30T18:15:20.723Z,98582.20
2018-12-30T18:18:29.828Z,98581.36
2018-12-30T18:21:36.602Z,98596.16
2018-12-30T18:24:54.201Z,98588.15
2018-12-30T18:28:01.324Z,98593.63
2018-12-30T18:31:08.219Z,98594.48
2018-12-30T18:34:15.199Z,98592.31
2018-12-30T18:37:22.683Z,98599.94
2018-12-30T18:40:31.998Z,98611.87
2018-12-30T18:43:38.676Z,98619.88
2018-12-30T18:46:46.016Z,98618.58
2018-12-30T18:49:53.734Z,98628.77
2018-12-30T18:53:00.765Z,98634.28
2018-12-30T18:56:07.684Z,98626.27
2018-12-30T18:59:14.617Z,98625.01
2018-12-30T19:02:21.509Z,98628.80
2018-12-30T19:05:28.966Z,98626.28
2018-12-30T19:08:35.855Z,98625.88
2018-12-30T19:11:43.190Z,98620.80
2018-12-30T19:14:50.168Z,98617.39
2018-12-30T19:17:57.172Z,98618.64
2018-12-30T19:21:03.839Z,98609.79
2018-12-30T19:24:10.820Z,98611.44
2018-12-30T19:27:17.771Z,98604.66
2018-12-30T19:30:25.959Z,98603.02
2018-12-30T19:33:33.035Z,98612.27
2018-12-30T19:36:40.065Z,98613.55
2018-12-30T19:39:47.020Z,98614.80
2018-12-30T19:42:53.963Z,98613.13
2018-12-30T19:46:01.981Z,98615.22
2018-12-30T19:49:09.170Z,98611.44
2018-12-30T19:52:16.454Z,98606.80
2018-12-30T19:55:23.359Z,98613.09
2018-12-30T19:58:30.390Z,98617.30
2018-12-30T20:01:37.085Z,98619.80
2018-12-30T20:04:44.580Z,98607.52
2018-12-30T20:07:51.505Z,98605.80
2018-12-30T20:10:58.385Z,98598.17
2018-12-30T20:14:05.312Z,98610.86
2018-12-30T20:17:15.048Z,98606.22
2018-12-30T20:20:21.977Z,98607.92
2018-12-30T20:23:31.692Z,98611.73
2018-12-30T20:26:38.712Z,98615.13
2018-12-30T20:29:45.613Z,98611.72
2018-12-30T20:32:53.003Z,98610.05
2018-12-30T20:35:59.675Z,98615.09
2018-12-30T20:39:09.196Z,98613.79
2018-12-30T20:42:15.982Z,98620.91
2018-12-30T20:45:23.185Z,98625.56
2018-12-30T20:48:37.126Z,98623.83
2018-12-30T20:51:49.688Z,98625.52
2018-12-30T20:55:04.631Z,98618.70
2018-12-30T20:58:12.165Z,98612.75
2018-12-30T21:01:24.474Z,98611.01
2018-12-30T21:04:36.632Z,98616.42
2018-12-30T21:07:44.181Z,98616.47
2018-12-30T21:10:52.850Z,98621.08
2018-12-30T21:14:03.504Z,98617.69
2018-12-30T21:17:10.580Z,98629.56
2018-12-30T21:20:17.626Z,98630.00
2018-12-30T21:23:24.870Z,98632.13
2018-12-30T21:26:31.843Z,98625.77
2018-12-30T21:29:45.140Z,98627.00
2018-12-30T21:32:53.372Z,98625.70
2018-12-30T21:36:00.284Z,98617.23
2018-12-30T21:39:09.807Z,98618.89
2018-12-30T21:42:19.077Z,98621.03
2018-12-30T21:45:26.006Z,98623.98
2018-12-30T21:48:33.231Z,98613.41
2018-12-30T21:51:40.190Z,98607.50
2018-12-30T21:54:47.356Z,98607.06
2018-12-30T21:57:55.576Z,98608.34
2018-12-30T22:01:02.655Z,98607.08
2018-12-30T22:04:09.583Z,98600.31
2018-12-30T22:07:16.303Z,98604.97
2018-12-30T22:10:23.354Z,98610.48
2018-12-30T22:13:30.371Z,98604.14
2018-12-30T22:16:37.246Z,98604.13
2018-12-30T22:19:44.568Z,98599.44
2018-12-30T22:22:51.316Z,98607.52
2018-12-30T22:25:58.756Z,98611.33
2018-12-30T22:29:05.539Z,98606.23
2018-12-30T22:32:12.437Z,98618.50
2018-12-30T22:35:19.541Z,98623.56
2018-12-30T22:38:26.527Z,98628.65
2018-12-30T22:41:33.222Z,98629.95
2018-12-30T22:44:40.011Z,98626.11
2018-12-30T22:47:47.161Z,98634.09
2018-12-30T22:50:54.112Z,98643.83
2018-12-30T22:54:01.925Z,98642.14
2018-12-30T22:57:08.859Z,98637.88
2018-12-30T23:00:39.802Z,98633.23
2018-12-30T23:03:46.931Z,98639.16
2018-12-30T23:06:54.023Z,98628.19
2018-12-30T23:10:03.561Z,98640.02
2018-12-30T23:13:10.522Z,98641.74
2018-12-30T23:16:17.449Z,98637.42
2018-12-30T23:19:24.346Z,98644.23
2018-12-30T23:22:31.586Z,98645.51
2018-12-30T23:25:38.527Z,98640.42
2018-12-30T23:28:45.261Z,98641.70
2018-12-30T23:31:52.199Z,98648.00
2018-12-30T23:34:59.123Z,98641.67
2018-12-30T23:38:06.024Z,98636.55
2018-12-30T23:41:15.474Z,98647.52
2018-12-30T23:44:22.460Z,98646.67
2018-12-30T23:47:30.137Z,98654.28
2018-12-30T23:50:37.226Z,98650.86
2018-12-30T23:53:44.184Z,98661.44
2018-12-30T23:56:51.095Z,98659.76
2018-12-30T23:59:58.049Z,98658.09
